Time;durP1;ratioP1;P1;durP2;ratioP2;P2;SDS_P1;SDS_P2;PMS_P1;PMS_P2;Temp;Humidity;BMP_temperature;BMP_pressure;BME280_temperature;BME280_humidity;BME280_pressure;Samples;Min_cycle;Max_cycle;Signal;HPM_P1;HPM_P2
2022/08/07 00:01:17;;;;;;;;;12.75;12.75;;;31.96;97602.12;;;;119454;1186;25027;-63
2022/08/07 00:04:06;;;;;;;;;16.25;12.00;;;32.01;97605.05;;;;119431;1187;24740;-64
2022/08/07 00:06:38;;;;;;;;;11.75;11.75;;;31.98;97605.94;;;;119443;1186;25016;-64
2022/08/07 00:09:20;;;;;;;;;11.75;10.25;;;31.98;97605.41;;;;119458;1186;25952;-64
2022/08/07 00:11:50;;;;;;;;;12.75;12.25;;;31.96;97604.50;;;;119475;1186;26246;-64
2022/08/07 00:14:28;;;;;;;;;11.50;11.50;;;31.94;97607.08;;;;119426;1186;25071;-64
2022/08/07 00:17:00;;;;;;;;;12.00;11.25;;;31.93;97607.86;;;;119455;1186;25723;-64
2022/08/07 00:19:30;;;;;;;;;17.67;13.33;;;31.92;97616.91;;;;119446;1186;25584;-65
2022/08/07 00:22:18;;;;;;;;;18.25;13.00;;;31.98;97617.52;;;;119447;1187;25686;-65
2022/08/07 00:25:06;;;;;;;;;13.50;13.25;;;32.02;97614.77;;;;119444;1186;25004;-64
2022/08/07 00:27:43;;;;;;;;;10.75;10.75;;;32.01;97613.45;;;;119460;1186;25018;-64
2022/08/07 00:30:23;;;;;;;;;14.00;12.00;;;31.99;97614.08;;;;119424;1187;25043;-65
2022/08/07 00:32:56;;;;;;;;;14.25;12.75;;;31.96;97617.76;;;;119438;1186;25692;-64
2022/08/07 00:35:26;;;;;;;;;13.25;12.50;;;31.92;97618.01;;;;119449;1186;26473;-64
2022/08/07 00:37:58;;;;;;;;;16.50;13.50;;;31.89;97621.25;;;;119441;1186;25326;-64
2022/08/07 00:40:27;;;;;;;;;12.00;11.67;;;31.87;97623.35;;;;119440;1187;24763;-64
2022/08/07 00:43:11;;;;;;;;;17.00;12.75;;;31.90;97620.49;;;;119465;1186;25643;-64
2022/08/07 00:46:00;;;;;;;;;14.50;13.00;;;31.98;97618.94;;;;119438;1186;26078;-64
2022/08/07 00:48:29;;;;;;;;;15.50;13.75;;;31.95;97620.23;;;;119466;1186;25637;-64
2022/08/07 00:51:01;;;;;;;;;15.00;13.00;;;31.90;97620.29;;;;119431;1186;25421;-63
2022/08/07 00:53:29;;;;;;;;;15.50;13.75;;;31.86;97619.65;;;;119447;1186;25608;-63
2022/08/07 00:56:17;;;;;;;;;15.50;14.75;;;31.93;97623.34;;;;119399;1186;25544;-63
2022/08/07 00:58:45;;;;;;;;;16.00;14.50;;;31.90;97626.23;;;;119421;1187;26023;-64
2022/08/07 01:01:19;;;;;;;;;15.50;13.75;;;31.86;97625.87;;;;119468;1185;24907;-63
2022/08/07 01:03:50;;;;;;;;;17.00;13.75;;;31.86;97623.34;;;;119459;1184;24874;-65
2022/08/07 01:06:28;;;;;;;;;13.75;12.50;;;31.87;97622.79;;;;119424;1186;25670;-65
2022/08/07 01:08:57;;;;;;;;;14.50;12.75;;;31.86;97623.02;;;;119416;1186;24914;-65
2022/08/07 01:11:29;;;;;;;;;15.50;12.75;;;31.84;97621.46;;;;119421;1184;26070;-63
2022/08/07 01:14:19;;;;;;;;;11.75;10.50;;;31.91;97621.12;;;;119405;1186;26352;-64
2022/08/07 01:16:55;;;;;;;;;12.75;11.50;;;31.92;97620.64;;;;119413;1186;25012;-65
2022/08/07 01:19:24;;;;;;;;;17.75;13.50;;;31.87;97619.41;;;;119427;1186;25154;-65
2022/08/07 01:21:52;;;;;;;;;14.00;12.00;;;31.84;97623.90;;;;119418;1186;25482;-65
2022/08/07 01:24:22;;;;;;;;;17.75;15.50;;;31.82;97627.17;;;;119411;1187;26409;-66
2022/08/07 01:26:51;;;;;;;;;13.00;13.00;;;31.78;97630.48;;;;119415;1187;26014;-64
2022/08/07 01:29:24;;;;;;;;;14.50;14.50;;;31.77;97628.21;;;;119426;1186;24854;-64
2022/08/07 01:31:55;;;;;;;;;12.50;12.50;;;31.77;97627.46;;;;119456;1187;25170;-64
2022/08/07 01:34:30;;;;;;;;;18.25;16.50;;;31.77;97622.41;;;;119411;1186;25714;-63
2022/08/07 01:36:58;;;;;;;;;12.75;12.75;;;31.76;97623.23;;;;119454;1186;25158;-65
2022/08/07 01:39:27;;;;;;;;;15.00;14.00;;;31.75;97624.69;;;;119413;1186;24770;-64
2022/08/07 01:42:14;;;;;;;;;17.67;14.33;;;31.82;97623.40;;;;119310;1187;25634;-63
2022/08/07 01:45:03;;;;;;;;;19.00;14.50;;;31.89;97621.27;;;;119412;1187;25582;-64
2022/08/07 01:47:36;;;;;;;;;12.50;11.75;;;31.87;97622.58;;;;119384;1187;25929;-64
2022/08/07 01:50:25;;;;;;;;;13.25;12.75;;;31.91;97628.83;;;;119394;1187;25599;-64
2022/08/07 01:52:58;;;;;;;;;16.50;16.00;;;31.88;97629.39;;;;119402;1186;26180;-65
2022/08/07 01:55:28;;;;;;;;;18.50;16.50;;;31.83;97629.39;;;;119418;1186;25652;-65
2022/08/07 01:58:01;;;;;;;;;14.25;12.25;;;31.82;97632.45;;;;119428;1187;25703;-67
2022/08/07 02:00:54;;;;;;;;;16.75;16.75;;;31.89;97631.20;;;;119408;1187;26072;-66
2022/08/07 02:03:44;;;;;;;;;14.25;13.25;;;31.97;97625.31;;;;119370;1185;26166;-66
2022/08/07 02:06:18;;;;;;;;;15.67;13.67;;;31.96;97621.73;;;;119430;1186;25695;-65
2022/08/07 02:09:02;;;;;;;;;15.25;15.25;;;31.95;97622.25;;;;119431;1187;24990;-65
2022/08/07 02:11:37;;;;;;;;;13.50;13.50;;;31.91;97620.91;;;;119447;1186;24894;-67
2022/08/07 02:14:27;;;;;;;;;15.50;12.75;;;31.96;97620.05;;;;119406;1186;25292;-66
2022/08/07 02:17:09;;;;;;;;;14.50;14.50;;;31.98;97622.17;;;;119413;1186;25590;-67
2022/08/07 02:19:40;;;;;;;;;19.50;16.25;;;31.93;97628.05;;;;119423;1187;26029;-64
2022/08/07 02:22:29;;;;;;;;;12.50;12.50;;;31.96;97628.11;;;;119452;1186;25686;-63
2022/08/07 02:24:58;;;;;;;;;14.25;13.25;;;31.92;97633.84;;;;119443;1187;24942;-64
2022/08/07 02:27:28;;;;;;;;;17.00;13.75;;;31.87;97637.64;;;;119429;1186;25681;-63
2022/08/07 02:30:03;;;;;;;;;18.25;14.50;;;31.85;97637.50;;;;119448;1186;25191;-64
2022/08/07 02:32:36;;;;;;;;;16.50;15.00;;;31.84;97636.67;;;;119408;1186;24779;-63
2022/08/07 02:35:25;;;;;;;;;13.25;13.25;;;31.91;97637.16;;;;119398;1186;24715;-64
2022/08/07 02:38:15;;;;;;;;;17.00;13.33;;;31.97;97636.12;;;;119413;1186;24794;-65
2022/08/07 02:40:43;;;;;;;;;18.25;16.25;;;31.92;97639.29;;;;119418;1187;26442;-65
2022/08/07 02:43:19;;;;;;;;;16.50;14.75;;;31.89;97642.89;;;;119421;1186;25264;-64
2022/08/07 02:45:48;;;;;;;;;17.00;16.00;;;31.83;97647.85;;;;119426;1187;25707;-64
2022/08/07 02:48:27;;;;;;;;;13.50;13.00;;;31.85;97649.89;;;;119432;1187;24957;-65
2022/08/07 02:50:56;;;;;;;;;13.25;12.50;;;31.83;97648.27;;;;119457;1187;24987;-65
2022/08/07 02:53:32;;;;;;;;;13.50;12.25;;;31.81;97644.69;;;;119448;1186;25411;-64
2022/08/07 02:56:08;;;;;;;;;20.50;15.50;;;31.82;97644.91;;;;119433;1186;26271;-64
2022/08/07 02:58:50;;;;;;;;;15.50;12.75;;;31.87;97644.98;;;;119462;1187;25608;-64
2022/08/07 03:01:23;;;;;;;;;20.00;14.75;;;31.86;97646.51;;;;119434;1186;24974;-64
2022/08/07 03:04:08;;;;;;;;;16.67;14.00;;;31.89;97649.25;;;;119401;1187;25397;-64
2022/08/07 03:06:42;;;;;;;;;15.00;14.00;;;31.90;97653.57;;;;119414;1186;26049;-64
2022/08/07 03:09:12;;;;;;;;;14.25;14.25;;;31.87;97654.68;;;;119432;1187;26007;-65
2022/08/07 03:11:40;;;;;;;;;14.50;14.50;;;31.82;97658.08;;;;119455;1187;25064;-65
2022/08/07 03:14:25;;;;;;;;;15.75;13.25;;;31.86;97658.14;;;;119455;1187;25789;-64
2022/08/07 03:16:55;;;;;;;;;12.50;12.50;;;31.84;97660.27;;;;119406;1186;25577;-64
2022/08/07 03:19:23;;;;;;;;;13.25;13.25;;;31.81;97659.13;;;;119416;1187;24793;-65
2022/08/07 03:21:56;;;;;;;;;16.25;14.75;;;31.79;97663.46;;;;119415;1185;25995;-65
2022/08/07 03:24:26;;;;;;;;;15.25;12.25;;;31.77;97663.77;;;;119419;1187;25922;-63
2022/08/07 03:26:59;;;;;;;;;19.25;13.25;;;31.76;97662.59;;;;119421;1186;25669;-64
2022/08/07 03:29:39;;;;;;;;;14.00;13.50;;;31.77;97661.92;;;;119392;1187;25425;-65
2022/08/07 03:32:20;;;;;;;;;16.75;13.25;;;31.86;97663.11;;;;119410;1187;25512;-65
2022/08/07 03:34:51;;;;;;;;;14.00;13.67;;;31.85;97665.11;;;;119421;1186;26167;-66
2022/08/07 03:37:38;;;;;;;;;11.25;11.25;;;31.91;97664.55;;;;119431;1187;26145;-65
2022/08/07 03:40:22;;;;;;;;;17.33;13.33;;;31.93;97665.96;;;;119423;1187;24739;-66
2022/08/07 03:42:59;;;;;;;;;16.00;14.75;;;31.91;97669.63;;;;119423;1187;25233;-65
2022/08/07 03:45:28;;;;;;;;;14.50;13.50;;;31.86;97674.90;;;;119437;1186;24738;-65
2022/08/07 03:47:58;;;;;;;;;14.25;14.25;;;31.82;97680.58;;;;119421;1186;25932;-66
2022/08/07 03:50:27;;;;;;;;;13.75;13.75;;;31.79;97684.48;;;;119413;1187;26008;-65
2022/08/07 03:52:59;;;;;;;;;14.50;13.25;;;31.77;97684.90;;;;119439;1187;25444;-66
2022/08/07 03:55:28;;;;;;;;;13.75;13.00;;;31.75;97680.96;;;;119460;1187;25198;-64
2022/08/07 03:58:18;;;;;;;;;8.67;8.67;;;31.83;97674.46;;;;119409;1186;26024;-64
2022/08/07 04:01:08;;;;;;;;;14.50;12.25;;;31.91;97671.00;;;;119444;1187;24866;-65
2022/08/07 04:03:38;;;;;;;;;16.00;15.75;;;31.92;97672.61;;;;119425;1186;25047;-65
2022/08/07 04:06:20;;;;;;;;;15.25;14.00;;;31.92;97680.40;;;;119440;1186;25206;-65
2022/08/07 04:09:08;;;;;;;;;14.33;14.00;;;31.94;97680.53;;;;119404;1186;24881;-65
2022/08/07 04:11:45;;;;;;;;;13.00;12.50;;;31.91;97686.05;;;;119439;1186;25428;-65
2022/08/07 04:14:33;;;;;;;;;13.00;13.00;;;31.95;97684.77;;;;119419;1187;25615;-65
2022/08/07 04:17:11;;;;;;;;;17.25;14.00;;;31.93;97690.70;;;;119445;1186;25227;-65
2022/08/07 04:19:49;;;;;;;;;14.00;11.25;;;31.90;97696.77;;;;119438;1186;26247;-65
2022/08/07 04:22:23;;;;;;;;;11.75;11.00;;;31.87;97697.98;;;;119434;1186;25511;-65
2022/08/07 04:24:59;;;;;;;;;12.00;12.00;;;31.85;97695.45;;;;119435;1186;25002;-67
2022/08/07 04:27:29;;;;;;;;;12.00;11.75;;;31.83;97695.58;;;;119412;1186;25705;-66
2022/08/07 04:30:04;;;;;;;;;13.00;9.50;;;31.80;97696.52;;;;119437;1187;25129;-66
2022/08/07 04:32:41;;;;;;;;;15.33;14.00;;;31.82;97698.84;;;;119419;1186;24866;-64
2022/08/07 04:35:14;;;;;;;;;17.50;14.25;;;31.81;97702.23;;;;119418;1186;25448;-66
2022/08/07 04:37:42;;;;;;;;;14.00;13.00;;;31.77;97707.34;;;;119414;1186;25247;-65
2022/08/07 04:40:30;;;;;;;;;18.25;12.75;;;31.84;97710.57;;;;119410;1186;26252;-64
2022/08/07 04:42:59;;;;;;;;;11.50;11.50;;;31.82;97708.11;;;;119423;1186;25831;-65
2022/08/07 04:45:37;;;;;;;;;13.50;12.00;;;31.79;97707.38;;;;119454;1186;26447;-64
2022/08/07 04:48:31;;;;;;;;;12.00;10.00;;;31.88;97706.99;;;;119452;1187;24916;-64
2022/08/07 04:51:02;;;;;;;;;12.75;12.75;;;31.86;97704.20;;;;119444;1186;25768;-64
2022/08/07 04:53:50;;;;;;;;;17.25;15.25;;;31.80;97703.14;;;;119442;1187;25023;-64
2022/08/07 04:56:35;;;;;;;;;13.75;13.00;;;31.91;97703.17;;;;119451;1186;25112;-64
2022/08/07 04:59:32;;;;;;;;;12.75;12.50;;;31.96;97706.95;;;;119435;1185;24935;-65
2022/08/07 05:02:33;;;;;;;;;13.75;12.25;;;31.98;97707.79;;;;119458;1186;24834;-64
2022/08/07 05:05:09;;;;;;;;;12.25;10.75;;;31.96;97709.20;;;;119457;1186;26178;-64
2022/08/07 05:08:05;;;;;;;;;14.25;13.50;;;31.98;97709.95;;;;119453;1186;25326;-64
2022/08/07 05:10:40;;;;;;;;;13.50;13.50;;;31.93;97711.95;;;;119432;1186;24814;-65
2022/08/07 05:13:16;;;;;;;;;12.25;12.25;;;31.87;97716.02;;;;119436;1186;26152;-65
2022/08/07 05:16:06;;;;;;;;;14.00;14.00;;;31.94;97720.49;;;;119458;1187;24923;-65
2022/08/07 05:18:46;;;;;;;;;13.50;12.00;;;31.90;97720.73;;;;119429;1185;26383;-65
2022/08/07 05:21:18;;;;;;;;;11.50;11.50;;;31.88;97721.98;;;;119414;1186;26183;-64
2022/08/07 05:24:10;;;;;;;;;15.00;13.67;;;31.93;97725.80;;;;119425;1187;25448;-65
2022/08/07 05:26:40;;;;;;;;;12.25;12.25;;;31.90;97729.11;;;;119454;1187;26018;-64
2022/08/07 05:29:14;;;;;;;;;14.50;13.25;;;31.87;97729.57;;;;119456;1186;27514;-65
2022/08/07 05:31:43;;;;;;;;;15.00;13.50;;;31.84;97729.97;;;;119425;1186;25421;-66
2022/08/07 05:34:20;;;;;;;;;12.00;12.00;;;31.83;97731.45;;;;119345;1187;25039;-66
2022/08/07 05:36:54;;;;;;;;;15.00;11.00;;;31.83;97730.85;;;;119415;1187;24783;-64
2022/08/07 05:39:23;;;;;;;;;14.00;12.50;;;31.79;97731.90;;;;119394;1186;25570;-65
2022/08/07 05:42:13;;;;;;;;;14.25;13.00;;;31.86;97732.88;;;;119438;1187;25109;-65
2022/08/07 05:44:41;;;;;;;;;14.75;14.00;;;31.84;97732.57;;;;119435;1186;25780;-64
2022/08/07 05:47:30;;;;;;;;;16.00;12.75;;;31.89;97732.70;;;;119428;1186;24915;-63
2022/08/07 05:50:18;;;;;;;;;14.75;13.50;;;31.95;97733.59;;;;119438;1187;25041;-63
2022/08/07 05:52:46;;;;;;;;;12.75;12.00;;;31.90;97735.48;;;;119444;1186;26440;-63
2022/08/07 05:55:15;;;;;;;;;13.00;12.00;;;31.85;97738.14;;;;119442;1186;26231;-63
2022/08/07 05:57:44;;;;;;;;;13.50;13.50;;;31.80;97739.67;;;;119331;1187;25550;-65
2022/08/07 06:00:14;;;;;;;;;14.00;12.33;;;31.79;97743.25;;;;119449;1186;25446;-65
2022/08/07 06:02:47;;;;;;;;;16.00;16.00;;;31.79;97745.12;;;;119414;1185;26174;-65
2022/08/07 06:05:17;;;;;;;;;13.67;12.33;;;31.79;97744.33;;;;119445;1187;25641;-65
2022/08/07 06:07:52;;;;;;;;;13.50;13.50;;;31.81;97746.12;;;;119446;1187;25253;-64
2022/08/07 06:10:40;;;;;;;;;16.00;12.00;;;31.87;97747.48;;;;119421;1186;25323;-64
2022/08/07 06:13:09;;;;;;;;;11.33;10.33;;;31.85;97744.71;;;;119418;1187;25440;-63
2022/08/07 06:15:43;;;;;;;;;14.25;13.00;;;31.82;97744.20;;;;119442;1186;25461;-64
2022/08/07 06:18:12;;;;;;;;;15.75;13.50;;;31.79;97746.19;;;;119428;1186;25717;-64
2022/08/07 06:20:44;;;;;;;;;17.00;14.25;;;31.78;97744.85;;;;119421;1186;26447;-64
2022/08/07 06:23:32;;;;;;;;;14.25;13.50;;;31.87;97747.50;;;;119459;1186;25812;-65
2022/08/07 06:26:20;;;;;;;;;18.00;16.33;;;31.95;97748.73;;;;119464;1187;25169;-64
2022/08/07 06:28:56;;;;;;;;;12.67;12.67;;;31.92;97747.02;;;;119425;1186;25102;-64
2022/08/07 06:31:25;;;;;;;;;13.75;13.00;;;31.88;97748.22;;;;119446;1186;25198;-64
2022/08/07 06:34:13;;;;;;;;;14.25;13.25;;;31.93;97748.10;;;;119440;1186;25322;-64
2022/08/07 06:36:41;;;;;;;;;13.25;12.75;;;31.89;97749.65;;;;119443;1186;25389;-64
2022/08/07 06:39:10;;;;;;;;;12.00;12.00;;;31.85;97752.78;;;;119453;1187;25449;-64
2022/08/07 06:42:17;;;;;;;;;12.25;11.50;;;31.91;97754.54;;;;119426;1186;24793;-65
2022/08/07 06:44:47;;;;;;;;;15.25;13.75;;;31.91;97751.23;;;;119426;1187;25815;-65
2022/08/07 06:47:18;;;;;;;;;15.00;13.25;;;31.86;97747.52;;;;119427;1186;25236;-65
2022/08/07 06:49:48;;;;;;;;;19.00;16.50;;;31.83;97743.34;;;;119432;1186;25976;-64
2022/08/07 06:52:21;;;;;;;;;16.50;12.75;;;31.83;97742.73;;;;119408;1186;26104;-64
2022/08/07 06:55:15;;;;;;;;;14.50;12.50;;;31.88;97741.89;;;;119443;1187;25300;-64
2022/08/07 06:58:06;;;;;;;;;17.50;13.00;;;32.01;97740.51;;;;119417;1186;25624;-65
2022/08/07 07:00:39;;;;;;;;;14.50;14.00;;;31.99;97739.74;;;;119435;1186;26024;-63
2022/08/07 07:03:09;;;;;;;;;13.00;11.00;;;31.94;97743.23;;;;119456;1186;25506;-64
2022/08/07 07:05:44;;;;;;;;;14.25;12.00;;;31.91;97742.15;;;;119418;1187;25530;-65
2022/08/07 07:08:32;;;;;;;;;12.75;12.75;;;31.95;97742.10;;;;119441;1186;26543;-65
2022/08/07 07:11:02;;;;;;;;;13.75;13.75;;;31.92;97744.84;;;;119414;1187;25877;-64
2022/08/07 07:13:51;;;;;;;;;12.00;12.00;;;31.97;97745.41;;;;119425;1186;25220;-65
2022/08/07 07:16:30;;;;;;;;;14.75;11.75;;;31.97;97747.52;;;;119398;1187;26529;-64
2022/08/07 07:19:06;;;;;;;;;13.75;13.50;;;31.94;97745.31;;;;119436;1186;25551;-65
2022/08/07 07:21:54;;;;;;;;;16.00;15.25;;;32.01;97744.85;;;;119433;1186;26156;-64
2022/08/07 07:24:43;;;;;;;;;19.25;17.75;;;32.06;97747.67;;;;119408;1187;25083;-64
2022/08/07 07:27:34;;;;;;;;;15.67;15.00;;;32.09;97749.58;;;;119412;1186;25961;-66
2022/08/07 07:30:25;;;;;;;;;15.25;15.25;;;32.12;97752.38;;;;119333;1186;25817;-64
2022/08/07 07:33:09;;;;;;;;;16.50;13.00;;;32.11;97752.98;;;;119453;1186;25359;-64
2022/08/07 07:35:41;;;;;;;;;12.50;12.50;;;32.05;97751.98;;;;119462;1187;25539;-64
2022/08/07 07:38:29;;;;;;;;;15.25;14.50;;;32.08;97751.04;;;;119458;1185;25382;-64
2022/08/07 07:41:02;;;;;;;;;14.75;12.25;;;32.02;97747.34;;;;119429;1186;25479;-64
2022/08/07 07:43:31;;;;;;;;;18.25;14.75;;;31.97;97747.05;;;;119430;1187;26415;-64
2022/08/07 07:46:22;;;;;;;;;14.50;13.25;;;32.03;97747.46;;;;119418;1186;24889;-64
2022/08/07 07:49:14;;;;;;;;;17.00;14.25;;;32.10;97746.19;;;;119424;1186;25584;-63
2022/08/07 07:52:04;;;;;;;;;15.25;13.00;;;32.14;97745.77;;;;119418;1186;24792;-63
2022/08/07 07:54:35;;;;;;;;;14.00;13.00;;;32.07;97746.73;;;;119426;1185;25374;-63
2022/08/07 07:57:04;;;;;;;;;14.75;13.50;;;31.99;97745.63;;;;119419;1186;25488;-63
2022/08/07 07:59:33;;;;;;;;;12.25;11.75;;;31.95;97743.73;;;;119455;1187;25062;-63
2022/08/07 08:02:20;;;;;;;;;15.25;13.00;;;32.00;97742.12;;;;119444;1187;26067;-63
2022/08/07 08:05:03;;;;;;;;;14.25;14.25;;;32.04;97738.07;;;;119411;1186;25618;-63
2022/08/07 08:07:39;;;;;;;;;14.25;14.25;;;32.01;97735.03;;;;119431;1187;25562;-64
2022/08/07 08:10:28;;;;;;;;;16.50;12.50;;;32.05;97735.21;;;;119418;1186;25592;-67
2022/08/07 08:13:08;;;;;;;;;15.50;15.25;;;32.05;97734.88;;;;119438;1185;25612;-64
2022/08/07 08:15:43;;;;;;;;;13.50;9.50;;;32.02;97734.99;;;;119416;1186;25153;-63
2022/08/07 08:18:27;;;;;;;;;13.75;13.25;;;32.03;97731.92;;;;119324;1187;25694;-63
2022/08/07 08:20:58;;;;;;;;;13.50;13.00;;;31.98;97730.37;;;;119403;1186;26766;-63
2022/08/07 08:29:03;;;;;;;;;17.75;15.00;;;31.94;97727.55;;;;119398;1187;25269;-61
2022/08/07 08:31:35;;;;;;;;;14.25;13.25;;;31.89;97723.40;;;;119421;1187;25200;-64
2022/08/07 08:34:23;;;;;;;;;17.75;14.75;;;31.98;97730.20;;;;119412;1187;26243;-61
2022/08/07 08:36:56;;;;;;;;;15.75;14.00;;;32.00;97728.02;;;;119370;1186;26544;-61
2022/08/07 08:39:26;;;;;;;;;16.75;16.00;;;31.97;97726.08;;;;119396;1186;24901;-61
2022/08/07 08:42:40;;;;;;;;;19.25;18.00;;;32.05;97726.95;;;;119390;1187;25352;-61
2022/08/07 08:45:21;;;;;;;;;17.50;17.50;;;32.06;97728.23;;;;119430;1187;24976;-61
2022/08/07 08:48:31;;;;;;;;;18.67;15.67;;;32.09;97726.33;;;;119384;1186;25627;-61
2022/08/07 08:51:19;;;;;;;;;17.75;16.25;;;32.10;97730.41;;;;119392;1185;25340;-61
2022/08/07 08:54:26;;;;;;;;;19.00;17.50;;;32.13;97733.09;;;;119414;1186;25040;-63
2022/08/07 08:56:57;;;;;;;;;19.00;15.75;;;32.10;97731.42;;;;119430;1186;25596;-63
2022/08/07 08:59:34;;;;;;;;;21.25;19.25;;;32.01;97728.67;;;;119441;1186;25693;-62
2022/08/07 09:02:38;;;;;;;;;17.50;17.25;;;32.07;97730.82;;;;119421;1187;24990;-62
2022/08/07 09:05:29;;;;;;;;;20.50;18.00;;;32.05;97730.58;;;;119407;1186;25468;-62
2022/08/07 09:08:26;;;;;;;;;17.00;16.00;;;32.04;97726.05;;;;119404;1186;25905;-63
2022/08/07 09:10:55;;;;;;;;;20.00;20.00;;;32.02;97721.92;;;;119437;1186;24961;-62
2022/08/07 09:13:33;;;;;;;;;18.00;17.67;;;31.96;97722.98;;;;119404;1186;24901;-61
2022/08/07 09:16:24;;;;;;;;;18.00;16.75;;;31.94;97720.30;;;;119432;1186;25186;-65
2022/08/07 09:19:09;;;;;;;;;22.25;18.75;;;31.98;97718.95;;;;119460;1185;24818;-64
2022/08/07 09:22:09;;;;;;;;;21.33;18.67;;;32.07;97725.88;;;;119441;1186;25235;-63
2022/08/07 09:25:21;;;;;;;;;19.50;14.25;;;32.11;97725.00;;;;119467;1187;25395;-63
2022/08/07 09:28:03;;;;;;;;;17.75;15.50;;;32.10;97721.28;;;;119432;1187;25199;-73
2022/08/07 09:30:50;;;;;;;;;17.33;17.33;;;32.07;97718.69;;;;119427;1187;26253;-64
2022/08/07 09:33:31;;;;;;;;;18.25;18.25;;;32.04;97714.35;;;;119447;1185;25667;-64
2022/08/07 09:36:30;;;;;;;;;19.50;18.00;;;32.10;97709.95;;;;119421;1187;25615;-67
2022/08/07 09:39:15;;;;;;;;;19.75;19.75;;;32.12;97709.42;;;;119422;1186;25841;-64
2022/08/07 09:42:21;;;;;;;;;18.25;15.75;;;32.13;97711.41;;;;119427;1186;26407;-64
2022/08/07 09:45:06;;;;;;;;;24.50;19.00;;;32.12;97705.20;;;;119457;1186;25688;-64
2022/08/07 09:47:57;;;;;;;;;16.75;16.75;;;32.14;97699.24;;;;119422;1187;24852;-64
2022/08/07 09:50:37;;;;;;;;;16.50;16.50;;;32.13;97694.90;;;;119443;1186;24711;-65
2022/08/07 09:53:11;;;;;;;;;16.00;15.50;;;32.10;97699.30;;;;119444;1186;25777;-65
2022/08/07 09:56:22;;;;;;;;;16.25;16.25;;;32.07;97699.98;;;;119437;1186;25624;-67
2022/08/07 09:59:21;;;;;;;;;18.00;17.75;;;32.16;97693.04;;;;119423;1186;24826;-67
2022/08/07 10:02:40;;;;;;;;;23.50;16.50;;;32.24;97688.40;;;;119418;1186;25096;-67
2022/08/07 10:05:34;;;;;;;;;17.00;17.00;;;32.25;97687.02;;;;119430;1186;26352;-69
2022/08/07 10:08:40;;;;;;;;;17.50;14.75;;;32.29;97686.57;;;;119463;1186;25639;-67
2022/08/07 10:11:20;;;;;;;;;16.75;14.75;;;32.27;97682.13;;;;119438;1186;24828;-67
2022/08/07 10:14:34;;;;;;;;;13.75;12.00;;;32.32;97683.39;;;;119444;1186;24844;-65
2022/08/07 10:17:13;;;;;;;;;16.50;16.50;;;32.36;97681.77;;;;119418;1185;25138;-68
2022/08/07 10:19:55;;;;;;;;;19.75;18.50;;;32.31;97681.47;;;;119410;1186;25213;-68
2022/08/07 10:22:31;;;;;;;;;15.00;15.00;;;32.23;97673.67;;;;119397;1186;25000;-67
2022/08/07 10:25:24;;;;;;;;;18.50;15.50;;;32.24;97673.38;;;;119413;1186;25623;-67
2022/08/07 10:28:36;;;;;;;;;21.75;19.25;;;32.36;97670.04;;;;119422;1186;25250;-68
2022/08/07 10:31:19;;;;;;;;;18.33;17.33;;;32.41;97668.23;;;;119430;1187;25076;-63
2022/08/07 10:33:53;;;;;;;;;16.25;15.50;;;32.36;97671.16;;;;119397;1187;25287;-65
2022/08/07 10:36:52;;;;;;;;;19.25;17.75;;;32.38;97670.73;;;;119423;1186;25716;-64
2022/08/07 10:39:43;;;;;;;;;16.00;16.00;;;32.38;97665.57;;;;119438;1186;24859;-63
2022/08/07 10:42:49;;;;;;;;;22.50;19.00;;;32.41;97666.58;;;;119439;1186;24778;-64
2022/08/07 10:45:41;;;;;;;;;17.25;15.50;;;32.42;97666.16;;;;119424;1186;25609;-73
2022/08/07 10:48:47;;;;;;;;;16.25;16.00;;;32.39;97663.81;;;;119446;1186;25043;-67
2022/08/07 10:51:32;;;;;;;;;15.67;15.00;;;32.36;97658.40;;;;119436;1186;24909;-64
2022/08/07 10:54:37;;;;;;;;;17.75;17.00;;;32.44;97660.16;;;;119379;1187;25915;-64
2022/08/07 10:57:45;;;;;;;;;16.75;16.00;;;32.48;97656.95;;;;119422;1186;25905;-64
2022/08/07 11:00:27;;;;;;;;;19.75;18.50;;;32.47;97650.98;;;;119437;1186;25605;-64
2022/08/07 11:03:15;;;;;;;;;18.75;17.00;;;32.45;97648.29;;;;119429;1187;25719;-65
2022/08/07 11:05:55;;;;;;;;;14.75;14.50;;;32.46;97643.30;;;;119437;1186;25081;-64
2022/08/07 11:08:36;;;;;;;;;21.50;17.50;;;32.45;97641.93;;;;119443;1187;25482;-64
2022/08/07 11:11:20;;;;;;;;;15.75;14.00;;;32.42;97639.64;;;;119432;1187;25436;-65
2022/08/07 11:13:55;;;;;;;;;20.75;16.50;;;32.42;97637.75;;;;119449;1187;25546;-67
2022/08/07 11:17:20;;;;;;;;;20.25;17.75;;;32.48;97635.12;;;;119415;1186;25672;-65
2022/08/07 11:20:25;;;;;;;;;16.75;15.50;;;32.62;97626.57;;;;119375;1187;26247;-67
2022/08/07 11:23:14;;;;;;;;;17.50;16.25;;;32.57;97621.17;;;;119425;1186;25501;-65
2022/08/07 11:26:30;;;;;;;;;18.50;14.00;;;32.53;97613.58;;;;119417;1187;25836;-65
2022/08/07 11:29:38;;;;;;;;;19.00;16.75;;;32.50;97614.65;;;;119305;1187;25482;-67
2022/08/07 11:32:16;;;;;;;;;18.50;14.25;;;32.57;97610.69;;;;119419;1186;25064;-65
2022/08/07 11:34:56;;;;;;;;;17.00;15.50;;;32.53;97607.60;;;;119397;1186;25866;-64
2022/08/07 11:37:58;;;;;;;;;17.25;15.75;;;32.49;97611.55;;;;119415;1186;24859;-65
2022/08/07 11:40:48;;;;;;;;;13.50;13.50;;;32.55;97608.92;;;;119428;1185;24904;-63
2022/08/07 11:43:30;;;;;;;;;18.00;18.00;;;32.50;97610.24;;;;119423;1186;26065;-62
2022/08/07 11:46:32;;;;;;;;;21.33;13.33;;;32.53;97607.80;;;;119416;1186;25597;-63
2022/08/07 11:49:31;;;;;;;;;15.25;15.25;;;32.53;97610.36;;;;119435;1186;25270;-64
2022/08/07 11:52:53;;;;;;;;;17.00;15.75;;;32.55;97606.08;;;;119454;1186;24819;-63
2022/08/07 11:55:56;;;;;;;;;15.33;13.67;;;32.58;97601.23;;;;119451;1186;25451;-64
2022/08/07 11:58:53;;;;;;;;;16.00;14.33;;;32.65;97596.96;;;;119135;1187;24873;-64
2022/08/07 12:01:29;;;;;;;;;18.75;15.00;;;32.60;97587.69;;;;119431;1187;25704;-64
2022/08/07 12:04:39;;;;;;;;;13.50;12.25;;;32.61;97583.34;;;;119428;1187;25051;-64
2022/08/07 12:07:22;;;;;;;;;16.25;14.75;;;32.61;97584.37;;;;119434;1186;25394;-65
2022/08/07 12:10:02;;;;;;;;;13.75;12.25;;;32.59;97580.46;;;;119421;1187;25988;-64
2022/08/07 12:12:41;;;;;;;;;17.50;14.00;;;32.57;97580.73;;;;119437;1185;26388;-64
2022/08/07 12:15:26;;;;;;;;;17.00;14.75;;;32.55;97576.98;;;;119448;1186;25745;-63
2022/08/07 12:18:34;;;;;;;;;15.50;15.50;;;32.61;97565.84;;;;119413;1186;27371;-64
2022/08/07 12:21:23;;;;;;;;;16.00;15.00;;;32.57;97556.89;;;;119432;1186;25601;-66
2022/08/07 12:24:19;;;;;;;;;14.75;14.75;;;32.58;97557.51;;;;119424;1186;24711;-66
2022/08/07 12:27:11;;;;;;;;;15.50;13.50;;;32.63;97554.98;;;;119438;1186;26079;-64
2022/08/07 12:30:12;;;;;;;;;16.00;15.00;;;32.61;97555.09;;;;119448;1185;26134;-64
2022/08/07 12:32:50;;;;;;;;;15.00;14.33;;;32.67;97555.30;;;;119410;1186;25585;-64
2022/08/07 12:35:20;;;;;;;;;15.75;14.00;;;32.62;97550.73;;;;119436;1186;24894;-64
2022/08/07 12:37:51;;;;;;;;;17.75;13.50;;;32.57;97547.95;;;;119445;1186;24880;-66
2022/08/07 12:40:39;;;;;;;;;14.00;12.50;;;32.61;97549.09;;;;119405;1185;26237;-69
2022/08/07 12:43:22;;;;;;;;;17.00;15.00;;;32.63;97549.48;;;;119407;1185;24740;-63
2022/08/07 12:46:19;;;;;;;;;15.00;13.50;;;32.70;97544.36;;;;119447;1186;25470;-64
2022/08/07 12:49:14;;;;;;;;;16.00;14.00;;;32.70;97542.81;;;;119450;1186;25471;-64
2022/08/07 12:52:12;;;;;;;;;16.50;14.75;;;32.78;97539.41;;;;119421;1186;25223;-64
2022/08/07 12:54:44;;;;;;;;;14.00;14.00;;;32.78;97537.98;;;;119434;1187;26395;-64
2022/08/07 12:57:27;;;;;;;;;19.50;16.25;;;32.75;97535.09;;;;119430;1186;25478;-64
2022/08/07 13:00:15;;;;;;;;;15.25;13.00;;;32.80;97532.59;;;;119433;1187;25357;-64
2022/08/07 13:03:11;;;;;;;;;19.25;18.00;;;32.84;97533.11;;;;119425;1186;25447;-71
2022/08/07 13:05:54;;;;;;;;;17.00;14.00;;;32.87;97530.42;;;;119438;1187;26699;-65
2022/08/07 13:08:55;;;;;;;;;16.50;15.25;;;32.93;97529.45;;;;119439;1186;25060;-67